Hlavní strana
METAR-TAF:

METAR-TAF

Letiště :

Hoonah, Aljaška, Spojené státy americké

zeměpisná šířka: 58-07N, zeměpisná délka: 135-27W, výška: 0 m

Aktuální stav počasí

Zpráva byla vytvořena před 55 minutami, v 04:56 UTC
Východní vítr 3 kt
Teplota 2°C
Vlhkost vzduchu 100%
Tlak 999 hPa
Viditelnost: 16.1 km
Zataženo ve výšce 3800 ft

METAR: PAOH 210456Z AUTO 10003KT 10SM OVC038 02/02 A2951 RMK AO2 SLP993 P0001 T00220022 FZRANO

Čas: 20:51 (05:51 UTC)


TAF: chybějící

Stav a předpovědi počasí z více než 4 000 letišť (zprávy METAR a TAF).

Červené a žluté tečky na mapě představují dostupné meteorologické stanice.

Když kurzor umístíte na tečku, zobrazí se název stanice.

Pak kliknutím zobrazíte stav a předpověď počasí.

Chcete-li změnit mapu, kliknutím na zelené tlačítko se znaménkem +mapu přiblížíte, kliknutím na zelené tlačítko se znaménkem – mapu oddálíte a kliknutím na zelené šipky přejdete na sousední mapy.


METAR-TAF: